Aviation Digital Data Service (ADDS)

Output produced by METARs form (2004 UTC 24 March 2017)
found at http://www.aviationweather.gov/adds/metars/
 
KALB 241738Z 2418/2518 18011G22KT P6SM VCSH OVC030 
     FM250200 18008KT P6SM VCSH BKN025 OVC035 
     FM250900 19005KT 6SM -RA OVC020